sensor_id;sensor_type;location;lat;lon;timestamp;P1;durP1;ratioP1;P2;durP2;ratioP2
49131;SDS011;35149;51.196;6.204;2023-07-16T00:00:52;2.10;;;1.30;;
49131;SDS011;35149;51.196;6.204;2023-07-16T00:03:19;3.33;;;1.10;;
49131;SDS011;35149;51.196;6.204;2023-07-16T00:05:49;3.10;;;1.65;;
49131;SDS011;35149;51.196;6.204;2023-07-16T00:08:17;3.97;;;1.90;;
49131;SDS011;35149;51.196;6.204;2023-07-16T00:10:46;2.95;;;1.50;;
49131;SDS011;35149;51.196;6.204;2023-07-16T00:13:22;3.38;;;1.35;;
49131;SDS011;35149;51.196;6.204;2023-07-16T00:15:51;3.58;;;1.70;;
49131;SDS011;35149;51.196;6.204;2023-07-16T00:18:18;2.35;;;1.55;;
49131;SDS011;35149;51.196;6.204;2023-07-16T00:20:46;1.73;;;1.48;;
49131;SDS011;35149;51.196;6.204;2023-07-16T00:23:16;2.28;;;1.73;;
49131;SDS011;35149;51.196;6.204;2023-07-16T00:25:43;1.50;;;1.17;;
49131;SDS011;35149;51.196;6.204;2023-07-16T00:28:12;4.25;;;1.55;;
49131;SDS011;35149;51.196;6.204;2023-07-16T00:30:39;2.20;;;1.60;;
49131;SDS011;35149;51.196;6.204;2023-07-16T00:33:08;2.40;;;1.40;;
49131;SDS011;35149;51.196;6.204;2023-07-16T00:35:35;3.00;;;1.73;;
49131;SDS011;35149;51.196;6.204;2023-07-16T00:38:01;2.28;;;1.35;;
49131;SDS011;35149;51.196;6.204;2023-07-16T00:40:31;3.35;;;1.52;;
49131;SDS011;35149;51.196;6.204;2023-07-16T00:42:59;3.63;;;1.73;;
49131;SDS011;35149;51.196;6.204;2023-07-16T00:45:28;2.33;;;1.70;;
49131;SDS011;35149;51.196;6.204;2023-07-16T00:47:57;4.03;;;1.80;;
49131;SDS011;35149;51.196;6.204;2023-07-16T00:50:25;1.95;;;1.55;;
49131;SDS011;35149;51.196;6.204;2023-07-16T00:52:54;2.35;;;1.40;;
49131;SDS011;35149;51.196;6.204;2023-07-16T00:55:21;1.63;;;1.45;;
49131;SDS011;35149;51.196;6.204;2023-07-16T00:57:48;4.03;;;1.92;;
49131;SDS011;35149;51.196;6.204;2023-07-16T01:00:15;3.40;;;1.58;;
49131;SDS011;35149;51.196;6.204;2023-07-16T01:02:43;1.60;;;1.30;;
49131;SDS011;35149;51.196;6.204;2023-07-16T01:05:12;2.83;;;1.40;;
49131;SDS011;35149;51.196;6.204;2023-07-16T01:07:42;2.47;;;1.02;;
49131;SDS011;35149;51.196;6.204;2023-07-16T01:10:21;3.08;;;1.52;;
49131;SDS011;35149;51.196;6.204;2023-07-16T01:12:54;3.08;;;1.88;;
49131;SDS011;35149;51.196;6.204;2023-07-16T01:15:23;1.95;;;1.50;;
49131;SDS011;35149;51.196;6.204;2023-07-16T01:18:00;2.35;;;1.25;;
49131;SDS011;35149;51.196;6.204;2023-07-16T01:20:31;1.65;;;1.13;;
49131;SDS011;35149;51.196;6.204;2023-07-16T01:23:25;3.35;;;1.45;;
49131;SDS011;35149;51.196;6.204;2023-07-16T01:31:40;3.38;;;1.40;;
49131;SDS011;35149;51.196;6.204;2023-07-16T01:34:08;1.92;;;1.73;;
49131;SDS011;35149;51.196;6.204;2023-07-16T01:36:38;1.65;;;1.10;;
49131;SDS011;35149;51.196;6.204;2023-07-16T01:39:08;3.90;;;1.40;;
49131;SDS011;35149;51.196;6.204;2023-07-16T01:41:34;2.25;;;1.50;;
49131;SDS011;35149;51.196;6.204;2023-07-16T01:44:12;4.35;;;2.00;;
49131;SDS011;35149;51.196;6.204;2023-07-16T01:46:39;3.00;;;1.48;;
49131;SDS011;35149;51.196;6.204;2023-07-16T01:49:09;3.40;;;1.50;;
49131;SDS011;35149;51.196;6.204;2023-07-16T01:51:40;2.30;;;1.80;;
49131;SDS011;35149;51.196;6.204;2023-07-16T01:54:07;1.45;;;1.35;;
49131;SDS011;35149;51.196;6.204;2023-07-16T01:56:33;1.88;;;1.30;;
49131;SDS011;35149;51.196;6.204;2023-07-16T01:59:02;3.53;;;1.52;;
49131;SDS011;35149;51.196;6.204;2023-07-16T02:01:31;1.65;;;1.55;;
49131;SDS011;35149;51.196;6.204;2023-07-16T02:03:58;4.40;;;1.60;;
49131;SDS011;35149;51.196;6.204;2023-07-16T02:06:30;1.80;;;1.60;;
49131;SDS011;35149;51.196;6.204;2023-07-16T02:08:57;3.53;;;2.22;;
49131;SDS011;35149;51.196;6.204;2023-07-16T02:11:26;3.10;;;2.17;;
49131;SDS011;35149;51.196;6.204;2023-07-16T02:14:00;3.40;;;2.30;;
49131;SDS011;35149;51.196;6.204;2023-07-16T02:16:30;2.70;;;2.20;;
49131;SDS011;35149;51.196;6.204;2023-07-16T02:18:59;3.55;;;2.65;;
49131;SDS011;35149;51.196;6.204;2023-07-16T02:21:25;2.20;;;2.00;;
49131;SDS011;35149;51.196;6.204;2023-07-16T02:23:54;3.25;;;2.13;;
49131;SDS011;35149;51.196;6.204;2023-07-16T02:26:24;3.22;;;2.72;;
49131;SDS011;35149;51.196;6.204;2023-07-16T02:28:51;7.03;;;2.22;;
49131;SDS011;35149;51.196;6.204;2023-07-16T02:31:18;4.65;;;2.25;;
49131;SDS011;35149;51.196;6.204;2023-07-16T02:36:17;4.70;;;1.85;;
49131;SDS011;35149;51.196;6.204;2023-07-16T02:38:46;3.75;;;2.05;;
49131;SDS011;35149;51.196;6.204;2023-07-16T02:41:14;2.40;;;1.80;;
49131;SDS011;35149;51.196;6.204;2023-07-16T02:43:58;2.45;;;2.10;;
49131;SDS011;35149;51.196;6.204;2023-07-16T02:46:30;2.35;;;1.60;;
49131;SDS011;35149;51.196;6.204;2023-07-16T02:48:56;4.20;;;1.85;;
49131;SDS011;35149;51.196;6.204;2023-07-16T02:51:23;4.68;;;1.85;;
49131;SDS011;35149;51.196;6.204;2023-07-16T02:53:50;2.13;;;1.55;;
49131;SDS011;35149;51.196;6.204;2023-07-16T02:56:19;3.67;;;1.50;;
49131;SDS011;35149;51.196;6.204;2023-07-16T02:58:48;3.08;;;1.70;;
49131;SDS011;35149;51.196;6.204;2023-07-16T03:01:15;2.65;;;1.58;;
49131;SDS011;35149;51.196;6.204;2023-07-16T03:03:42;3.13;;;2.13;;
49131;SDS011;35149;51.196;6.204;2023-07-16T03:06:11;6.20;;;1.83;;
49131;SDS011;35149;51.196;6.204;2023-07-16T03:08:43;4.72;;;2.30;;
49131;SDS011;35149;51.196;6.204;2023-07-16T03:11:17;3.22;;;1.92;;
49131;SDS011;35149;51.196;6.204;2023-07-16T03:13:47;2.10;;;1.42;;
49131;SDS011;35149;51.196;6.204;2023-07-16T03:16:14;5.25;;;1.95;;
49131;SDS011;35149;51.196;6.204;2023-07-16T03:18:44;2.92;;;1.52;;
49131;SDS011;35149;51.196;6.204;2023-07-16T03:21:12;4.32;;;2.20;;
49131;SDS011;35149;51.196;6.204;2023-07-16T03:23:41;3.28;;;1.60;;
49131;SDS011;35149;51.196;6.204;2023-07-16T03:26:07;3.00;;;1.88;;
49131;SDS011;35149;51.196;6.204;2023-07-16T03:28:36;9.65;;;2.72;;
49131;SDS011;35149;51.196;6.204;2023-07-16T03:31:14;2.63;;;1.88;;
49131;SDS011;35149;51.196;6.204;2023-07-16T03:33:43;1.70;;;1.33;;
49131;SDS011;35149;51.196;6.204;2023-07-16T03:36:11;5.80;;;3.08;;
49131;SDS011;35149;51.196;6.204;2023-07-16T03:38:38;3.22;;;2.15;;
49131;SDS011;35149;51.196;6.204;2023-07-16T03:41:09;3.53;;;1.95;;
49131;SDS011;35149;51.196;6.204;2023-07-16T03:43:38;3.53;;;2.55;;
49131;SDS011;35149;51.196;6.204;2023-07-16T03:46:18;6.18;;;2.30;;
49131;SDS011;35149;51.196;6.204;2023-07-16T03:48:46;3.77;;;2.00;;
49131;SDS011;35149;51.196;6.204;2023-07-16T03:51:13;4.32;;;1.80;;
49131;SDS011;35149;51.196;6.204;2023-07-16T03:53:41;4.85;;;2.60;;
49131;SDS011;35149;51.196;6.204;2023-07-16T03:56:08;5.70;;;2.20;;
49131;SDS011;35149;51.196;6.204;2023-07-16T03:58:37;5.80;;;2.67;;
49131;SDS011;35149;51.196;6.204;2023-07-16T04:01:05;4.55;;;2.15;;
49131;SDS011;35149;51.196;6.204;2023-07-16T04:03:31;3.78;;;2.05;;
49131;SDS011;35149;51.196;6.204;2023-07-16T04:06:03;9.63;;;2.45;;
49131;SDS011;35149;51.196;6.204;2023-07-16T04:08:31;4.63;;;1.70;;
49131;SDS011;35149;51.196;6.204;2023-07-16T04:10:58;3.83;;;1.75;;
49131;SDS011;35149;51.196;6.204;2023-07-16T04:13:27;5.68;;;1.90;;
49131;SDS011;35149;51.196;6.204;2023-07-16T04:15:57;5.07;;;1.70;;
49131;SDS011;35149;51.196;6.204;2023-07-16T04:18:29;3.15;;;1.92;;
49131;SDS011;35149;51.196;6.204;2023-07-16T04:20:56;5.03;;;1.50;;
49131;SDS011;35149;51.196;6.204;2023-07-16T04:23:25;4.47;;;1.85;;
49131;SDS011;35149;51.196;6.204;2023-07-16T04:25:52;6.72;;;2.83;;
49131;SDS011;35149;51.196;6.204;2023-07-16T04:28:20;2.50;;;1.70;;
49131;SDS011;35149;51.196;6.204;2023-07-16T04:30:50;2.33;;;1.60;;
49131;SDS011;35149;51.196;6.204;2023-07-16T04:33:18;4.78;;;2.55;;
49131;SDS011;35149;51.196;6.204;2023-07-16T04:35:49;3.72;;;2.05;;
49131;SDS011;35149;51.196;6.204;2023-07-16T04:38:16;6.40;;;2.25;;
49131;SDS011;35149;51.196;6.204;2023-07-16T04:40:45;4.13;;;2.17;;
49131;SDS011;35149;51.196;6.204;2023-07-16T04:43:14;5.47;;;1.73;;
49131;SDS011;35149;51.196;6.204;2023-07-16T04:45:43;3.38;;;2.30;;
49131;SDS011;35149;51.196;6.204;2023-07-16T04:48:12;5.53;;;1.88;;
49131;SDS011;35149;51.196;6.204;2023-07-16T04:50:39;5.90;;;2.33;;
49131;SDS011;35149;51.196;6.204;2023-07-16T04:53:08;4.05;;;2.38;;
49131;SDS011;35149;51.196;6.204;2023-07-16T04:55:36;5.53;;;2.17;;
49131;SDS011;35149;51.196;6.204;2023-07-16T04:58:04;3.15;;;2.17;;
49131;SDS011;35149;51.196;6.204;2023-07-16T05:00:33;5.65;;;1.90;;
49131;SDS011;35149;51.196;6.204;2023-07-16T05:03:03;5.70;;;2.70;;
49131;SDS011;35149;51.196;6.204;2023-07-16T05:05:36;4.40;;;2.15;;
49131;SDS011;35149;51.196;6.204;2023-07-16T05:08:03;3.38;;;1.77;;
49131;SDS011;35149;51.196;6.204;2023-07-16T05:10:33;3.33;;;2.28;;
49131;SDS011;35149;51.196;6.204;2023-07-16T05:12:59;4.20;;;2.30;;
49131;SDS011;35149;51.196;6.204;2023-07-16T05:15:31;3.60;;;2.53;;
49131;SDS011;35149;51.196;6.204;2023-07-16T05:17:59;5.40;;;2.97;;
49131;SDS011;35149;51.196;6.204;2023-07-16T05:20:26;6.13;;;3.70;;
49131;SDS011;35149;51.196;6.204;2023-07-16T05:22:52;2.60;;;1.90;;
49131;SDS011;35149;51.196;6.204;2023-07-16T05:25:19;7.47;;;4.00;;
49131;SDS011;35149;51.196;6.204;2023-07-16T05:27:55;5.00;;;2.72;;
49131;SDS011;35149;51.196;6.204;2023-07-16T05:30:23;5.35;;;2.78;;
49131;SDS011;35149;51.196;6.204;2023-07-16T05:32:54;5.90;;;2.75;;
49131;SDS011;35149;51.196;6.204;2023-07-16T05:35:21;5.45;;;2.50;;
49131;SDS011;35149;51.196;6.204;2023-07-16T05:37:47;3.70;;;2.95;;
49131;SDS011;35149;51.196;6.204;2023-07-16T05:40:14;4.03;;;2.78;;
49131;SDS011;35149;51.196;6.204;2023-07-16T05:42:44;5.28;;;2.97;;
49131;SDS011;35149;51.196;6.204;2023-07-16T05:45:11;7.85;;;3.28;;
49131;SDS011;35149;51.196;6.204;2023-07-16T05:47:37;6.95;;;3.03;;
49131;SDS011;35149;51.196;6.204;2023-07-16T05:50:04;7.55;;;3.40;;
49131;SDS011;35149;51.196;6.204;2023-07-16T05:52:31;5.85;;;3.35;;
49131;SDS011;35149;51.196;6.204;2023-07-16T05:54:58;4.95;;;3.03;;
49131;SDS011;35149;51.196;6.204;2023-07-16T05:57:25;6.63;;;3.63;;
49131;SDS011;35149;51.196;6.204;2023-07-16T05:59:54;6.47;;;3.55;;
49131;SDS011;35149;51.196;6.204;2023-07-16T06:02:24;7.57;;;3.05;;
49131;SDS011;35149;51.196;6.204;2023-07-16T06:04:51;4.07;;;3.33;;
49131;SDS011;35149;51.196;6.204;2023-07-16T06:07:20;7.03;;;3.95;;
49131;SDS011;35149;51.196;6.204;2023-07-16T06:09:48;5.75;;;3.30;;
49131;SDS011;35149;51.196;6.204;2023-07-16T06:12:17;7.03;;;3.83;;
49131;SDS011;35149;51.196;6.204;2023-07-16T06:14:45;6.85;;;4.15;;
49131;SDS011;35149;51.196;6.204;2023-07-16T06:17:12;8.77;;;3.95;;
49131;SDS011;35149;51.196;6.204;2023-07-16T06:19:42;7.53;;;4.55;;
49131;SDS011;35149;51.196;6.204;2023-07-16T06:22:08;7.82;;;4.03;;
49131;SDS011;35149;51.196;6.204;2023-07-16T06:24:35;5.07;;;3.92;;
49131;SDS011;35149;51.196;6.204;2023-07-16T06:27:04;6.82;;;4.60;;
49131;SDS011;35149;51.196;6.204;2023-07-16T06:29:31;13.20;;;3.95;;
49131;SDS011;35149;51.196;6.204;2023-07-16T06:32:05;9.10;;;4.30;;
49131;SDS011;35149;51.196;6.204;2023-07-16T06:34:33;5.68;;;3.40;;
49131;SDS011;35149;51.196;6.204;2023-07-16T06:36:59;10.25;;;4.20;;
49131;SDS011;35149;51.196;6.204;2023-07-16T06:39:26;5.28;;;3.83;;
49131;SDS011;35149;51.196;6.204;2023-07-16T06:41:53;7.80;;;3.95;;
49131;SDS011;35149;51.196;6.204;2023-07-16T06:44:21;11.35;;;4.20;;
49131;SDS011;35149;51.196;6.204;2023-07-16T06:46:49;6.43;;;4.50;;
49131;SDS011;35149;51.196;6.204;2023-07-16T06:49:15;7.90;;;4.30;;
49131;SDS011;35149;51.196;6.204;2023-07-16T06:51:42;5.88;;;4.30;;
49131;SDS011;35149;51.196;6.204;2023-07-16T06:54:09;7.60;;;4.55;;
49131;SDS011;35149;51.196;6.204;2023-07-16T06:56:35;5.90;;;4.38;;
49131;SDS011;35149;51.196;6.204;2023-07-16T06:59:02;5.07;;;3.83;;
49131;SDS011;35149;51.196;6.204;2023-07-16T07:01:29;5.93;;;4.05;;
49131;SDS011;35149;51.196;6.204;2023-07-16T07:03:56;6.43;;;4.03;;
49131;SDS011;35149;51.196;6.204;2023-07-16T07:06:22;6.75;;;4.40;;
49131;SDS011;35149;51.196;6.204;2023-07-16T07:08:51;11.90;;;4.88;;
49131;SDS011;35149;51.196;6.204;2023-07-16T07:11:18;8.63;;;4.80;;
49131;SDS011;35149;51.196;6.204;2023-07-16T07:13:45;6.95;;;4.88;;
49131;SDS011;35149;51.196;6.204;2023-07-16T07:16:11;5.40;;;4.03;;
49131;SDS011;35149;51.196;6.204;2023-07-16T07:18:38;6.25;;;4.57;;
49131;SDS011;35149;51.196;6.204;2023-07-16T07:21:08;5.13;;;4.60;;
49131;SDS011;35149;51.196;6.204;2023-07-16T07:23:34;7.07;;;4.65;;
49131;SDS011;35149;51.196;6.204;2023-07-16T07:26:05;7.55;;;4.55;;
49131;SDS011;35149;51.196;6.204;2023-07-16T07:28:33;5.68;;;4.07;;
49131;SDS011;35149;51.196;6.204;2023-07-16T07:31:00;9.50;;;4.63;;
49131;SDS011;35149;51.196;6.204;2023-07-16T07:33:27;6.30;;;4.63;;
49131;SDS011;35149;51.196;6.204;2023-07-16T07:35:57;7.03;;;4.22;;
49131;SDS011;35149;51.196;6.204;2023-07-16T07:38:24;6.13;;;4.57;;
49131;SDS011;35149;51.196;6.204;2023-07-16T07:40:54;9.15;;;5.00;;
49131;SDS011;35149;51.196;6.204;2023-07-16T07:43:25;13.23;;;5.35;;
49131;SDS011;35149;51.196;6.204;2023-07-16T07:45:52;7.82;;;4.72;;
49131;SDS011;35149;51.196;6.204;2023-07-16T07:48:21;5.50;;;4.90;;
49131;SDS011;35149;51.196;6.204;2023-07-16T07:50:48;5.47;;;4.00;;
49131;SDS011;35149;51.196;6.204;2023-07-16T07:53:19;6.85;;;4.63;;
49131;SDS011;35149;51.196;6.204;2023-07-16T07:55:47;7.03;;;4.18;;
49131;SDS011;35149;51.196;6.204;2023-07-16T07:58:13;6.57;;;4.28;;
49131;SDS011;35149;51.196;6.204;2023-07-16T08:00:40;7.28;;;4.35;;
49131;SDS011;35149;51.196;6.204;2023-07-16T08:03:09;7.32;;;4.80;;
49131;SDS011;35149;51.196;6.204;2023-07-16T08:05:40;6.30;;;3.70;;
49131;SDS011;35149;51.196;6.204;2023-07-16T08:08:07;6.10;;;3.90;;
49131;SDS011;35149;51.196;6.204;2023-07-16T08:10:33;7.10;;;4.35;;
49131;SDS011;35149;51.196;6.204;2023-07-16T08:13:01;7.63;;;3.70;;
49131;SDS011;35149;51.196;6.204;2023-07-16T08:15:36;5.95;;;3.90;;
49131;SDS011;35149;51.196;6.204;2023-07-16T08:18:08;5.57;;;3.50;;
49131;SDS011;35149;51.196;6.204;2023-07-16T08:20:36;6.55;;;3.60;;
49131;SDS011;35149;51.196;6.204;2023-07-16T08:23:06;6.70;;;4.35;;
49131;SDS011;35149;51.196;6.204;2023-07-16T08:25:37;5.97;;;3.75;;
49131;SDS011;35149;51.196;6.204;2023-07-16T08:28:06;8.70;;;4.10;;
49131;SDS011;35149;51.196;6.204;2023-07-16T08:30:34;5.00;;;3.95;;
49131;SDS011;35149;51.196;6.204;2023-07-16T08:33:00;6.78;;;3.97;;
49131;SDS011;35149;51.196;6.204;2023-07-16T08:35:27;7.93;;;5.13;;
49131;SDS011;35149;51.196;6.204;2023-07-16T08:37:54;4.90;;;4.00;;
49131;SDS011;35149;51.196;6.204;2023-07-16T08:40:20;6.47;;;3.88;;
49131;SDS011;35149;51.196;6.204;2023-07-16T08:42:47;6.20;;;3.40;;
49131;SDS011;35149;51.196;6.204;2023-07-16T08:45:15;6.72;;;3.65;;
49131;SDS011;35149;51.196;6.204;2023-07-16T08:47:42;5.90;;;3.45;;
49131;SDS011;35149;51.196;6.204;2023-07-16T08:50:10;6.95;;;3.35;;
49131;SDS011;35149;51.196;6.204;2023-07-16T08:52:38;6.07;;;3.70;;
49131;SDS011;35149;51.196;6.204;2023-07-16T08:55:06;5.88;;;3.20;;
49131;SDS011;35149;51.196;6.204;2023-07-16T08:57:33;4.88;;;3.22;;
49131;SDS011;35149;51.196;6.204;2023-07-16T09:00:00;6.35;;;3.65;;
49131;SDS011;35149;51.196;6.204;2023-07-16T09:02:28;6.55;;;4.18;;
49131;SDS011;35149;51.196;6.204;2023-07-16T09:04:55;7.72;;;4.05;;
49131;SDS011;35149;51.196;6.204;2023-07-16T09:07:22;4.55;;;3.53;;
49131;SDS011;35149;51.196;6.204;2023-07-16T09:09:55;6.00;;;3.65;;
49131;SDS011;35149;51.196;6.204;2023-07-16T09:12:27;5.20;;;3.25;;
49131;SDS011;35149;51.196;6.204;2023-07-16T09:14:54;4.95;;;4.30;;
49131;SDS011;35149;51.196;6.204;2023-07-16T09:17:22;4.72;;;3.28;;
49131;SDS011;35149;51.196;6.204;2023-07-16T09:19:50;5.82;;;3.80;;
49131;SDS011;35149;51.196;6.204;2023-07-16T09:22:18;7.32;;;3.50;;
49131;SDS011;35149;51.196;6.204;2023-07-16T09:24:46;6.07;;;2.97;;
49131;SDS011;35149;51.196;6.204;2023-07-16T09:27:13;6.32;;;3.28;;
49131;SDS011;35149;51.196;6.204;2023-07-16T09:29:40;5.22;;;3.80;;
49131;SDS011;35149;51.196;6.204;2023-07-16T09:32:07;4.97;;;2.83;;
49131;SDS011;35149;51.196;6.204;2023-07-16T09:38:55;4.82;;;3.78;;
49131;SDS011;35149;51.196;6.204;2023-07-16T09:44:26;3.92;;;3.10;;
49131;SDS011;35149;51.196;6.204;2023-07-16T09:46:53;5.05;;;3.45;;
49131;SDS011;35149;51.196;6.204;2023-07-16T09:49:20;4.45;;;3.28;;
49131;SDS011;35149;51.196;6.204;2023-07-16T09:51:48;6.25;;;3.55;;
49131;SDS011;35149;51.196;6.204;2023-07-16T09:54:24;7.90;;;3.67;;
49131;SDS011;35149;51.196;6.204;2023-07-16T09:56:53;6.97;;;3.65;;
49131;SDS011;35149;51.196;6.204;2023-07-16T09:59:25;4.10;;;3.67;;
49131;SDS011;35149;51.196;6.204;2023-07-16T10:01:55;4.40;;;3.08;;
49131;SDS011;35149;51.196;6.204;2023-07-16T10:04:23;8.27;;;4.13;;
49131;SDS011;35149;51.196;6.204;2023-07-16T10:06:58;4.72;;;3.38;;
49131;SDS011;35149;51.196;6.204;2023-07-16T10:09:35;5.93;;;3.50;;
49131;SDS011;35149;51.196;6.204;2023-07-16T10:12:18;5.32;;;3.67;;
49131;SDS011;35149;51.196;6.204;2023-07-16T10:15:04;8.27;;;4.35;;
49131;SDS011;35149;51.196;6.204;2023-07-16T10:17:32;5.38;;;2.90;;
49131;SDS011;35149;51.196;6.204;2023-07-16T10:20:00;4.38;;;3.30;;
49131;SDS011;35149;51.196;6.204;2023-07-16T10:22:37;6.55;;;2.60;;
49131;SDS011;35149;51.196;6.204;2023-07-16T10:25:10;3.75;;;2.47;;
49131;SDS011;35149;51.196;6.204;2023-07-16T10:27:50;4.47;;;3.25;;
49131;SDS011;35149;51.196;6.204;2023-07-16T10:30:21;3.50;;;2.55;;
49131;SDS011;35149;51.196;6.204;2023-07-16T10:32:52;6.95;;;4.32;;
49131;SDS011;35149;51.196;6.204;2023-07-16T10:35:19;3.75;;;2.88;;
49131;SDS011;35149;51.196;6.204;2023-07-16T10:37:46;4.00;;;2.75;;
49131;SDS011;35149;51.196;6.204;2023-07-16T10:40:13;4.50;;;3.13;;
49131;SDS011;35149;51.196;6.204;2023-07-16T10:42:41;4.13;;;2.95;;
49131;SDS011;35149;51.196;6.204;2023-07-16T10:45:09;5.90;;;3.30;;
49131;SDS011;35149;51.196;6.204;2023-07-16T10:47:37;3.42;;;2.40;;
49131;SDS011;35149;51.196;6.204;2023-07-16T10:50:08;3.33;;;2.37;;
49131;SDS011;35149;51.196;6.204;2023-07-16T10:52:36;3.13;;;2.53;;
49131;SDS011;35149;51.196;6.204;2023-07-16T10:55:06;4.30;;;3.10;;
49131;SDS011;35149;51.196;6.204;2023-07-16T10:57:34;3.45;;;2.80;;
49131;SDS011;35149;51.196;6.204;2023-07-16T11:00:01;4.53;;;2.13;;
49131;SDS011;35149;51.196;6.204;2023-07-16T11:02:29;3.95;;;2.63;;
49131;SDS011;35149;51.196;6.204;2023-07-16T11:04:56;4.00;;;2.30;;
49131;SDS011;35149;51.196;6.204;2023-07-16T11:07:30;3.55;;;2.83;;
49131;SDS011;35149;51.196;6.204;2023-07-16T11:09:57;3.25;;;2.42;;
49131;SDS011;35149;51.196;6.204;2023-07-16T11:12:24;2.80;;;2.15;;
49131;SDS011;35149;51.196;6.204;2023-07-16T11:14:51;3.53;;;2.47;;
49131;SDS011;35149;51.196;6.204;2023-07-16T11:17:20;3.30;;;2.10;;
49131;SDS011;35149;51.196;6.204;2023-07-16T11:19:53;3.47;;;2.78;;
49131;SDS011;35149;51.196;6.204;2023-07-16T11:22:26;3.00;;;2.15;;
49131;SDS011;35149;51.196;6.204;2023-07-16T11:24:53;3.60;;;2.42;;
49131;SDS011;35149;51.196;6.204;2023-07-16T11:27:25;3.53;;;2.40;;
49131;SDS011;35149;51.196;6.204;2023-07-16T11:29:56;3.38;;;2.70;;
49131;SDS011;35149;51.196;6.204;2023-07-16T11:35:04;4.80;;;2.38;;
49131;SDS011;35149;51.196;6.204;2023-07-16T11:37:34;6.80;;;2.70;;
49131;SDS011;35149;51.196;6.204;2023-07-16T11:40:05;3.95;;;2.40;;
49131;SDS011;35149;51.196;6.204;2023-07-16T11:42:34;3.40;;;2.80;;
49131;SDS011;35149;51.196;6.204;2023-07-16T11:45:15;2.70;;;2.22;;
49131;SDS011;35149;51.196;6.204;2023-07-16T11:47:46;3.30;;;2.70;;
49131;SDS011;35149;51.196;6.204;2023-07-16T11:50:12;3.55;;;2.25;;
49131;SDS011;35149;51.196;6.204;2023-07-16T11:52:39;3.67;;;2.45;;
49131;SDS011;35149;51.196;6.204;2023-07-16T11:55:07;3.17;;;2.38;;
49131;SDS011;35149;51.196;6.204;2023-07-16T11:57:34;3.08;;;2.70;;
49131;SDS011;35149;51.196;6.204;2023-07-16T12:00:04;4.55;;;2.45;;
49131;SDS011;35149;51.196;6.204;2023-07-16T12:02:34;5.07;;;2.00;;
49131;SDS011;35149;51.196;6.204;2023-07-16T12:05:01;2.85;;;1.98;;
49131;SDS011;35149;51.196;6.204;2023-07-16T12:07:32;2.65;;;2.35;;
49131;SDS011;35149;51.196;6.204;2023-07-16T12:10:03;5.47;;;2.20;;
49131;SDS011;35149;51.196;6.204;2023-07-16T12:12:35;3.67;;;2.13;;
49131;SDS011;35149;51.196;6.204;2023-07-16T12:15:05;2.80;;;1.95;;
49131;SDS011;35149;51.196;6.204;2023-07-16T12:17:35;2.75;;;1.90;;
49131;SDS011;35149;51.196;6.204;2023-07-16T12:20:02;3.78;;;2.00;;
49131;SDS011;35149;51.196;6.204;2023-07-16T12:22:35;2.67;;;1.90;;
49131;SDS011;35149;51.196;6.204;2023-07-16T12:25:04;2.13;;;1.77;;
49131;SDS011;35149;51.196;6.204;2023-07-16T12:27:31;3.75;;;2.30;;
49131;SDS011;35149;51.196;6.204;2023-07-16T12:29:58;3.75;;;2.15;;
49131;SDS011;35149;51.196;6.204;2023-07-16T12:32:24;4.32;;;2.33;;
49131;SDS011;35149;51.196;6.204;2023-07-16T12:34:54;5.07;;;1.88;;
49131;SDS011;35149;51.196;6.204;2023-07-16T12:37:21;4.53;;;2.40;;
49131;SDS011;35149;51.196;6.204;2023-07-16T12:39:48;2.70;;;2.38;;
49131;SDS011;35149;51.196;6.204;2023-07-16T12:42:14;2.72;;;1.98;;
49131;SDS011;35149;51.196;6.204;2023-07-16T12:44:41;5.15;;;1.90;;
49131;SDS011;35149;51.196;6.204;2023-07-16T12:47:07;2.42;;;1.98;;
49131;SDS011;35149;51.196;6.204;2023-07-16T12:49:35;3.92;;;2.10;;
49131;SDS011;35149;51.196;6.204;2023-07-16T12:52:02;2.75;;;1.73;;
49131;SDS011;35149;51.196;6.204;2023-07-16T12:54:29;3.83;;;2.22;;
49131;SDS011;35149;51.196;6.204;2023-07-16T12:56:57;3.42;;;1.75;;
49131;SDS011;35149;51.196;6.204;2023-07-16T12:59:26;5.35;;;2.05;;
49131;SDS011;35149;51.196;6.204;2023-07-16T13:01:53;3.20;;;2.17;;
49131;SDS011;35149;51.196;6.204;2023-07-16T13:04:19;3.38;;;1.92;;
49131;SDS011;35149;51.196;6.204;2023-07-16T13:06:47;2.72;;;1.80;;
49131;SDS011;35149;51.196;6.204;2023-07-16T13:09:14;2.95;;;1.63;;
49131;SDS011;35149;51.196;6.204;2023-07-16T13:11:43;3.25;;;1.80;;
49131;SDS011;35149;51.196;6.204;2023-07-16T13:14:10;2.08;;;1.80;;
49131;SDS011;35149;51.196;6.204;2023-07-16T13:16:37;1.98;;;1.73;;
49131;SDS011;35149;51.196;6.204;2023-07-16T13:19:03;3.05;;;1.88;;
49131;SDS011;35149;51.196;6.204;2023-07-16T13:21:30;2.92;;;2.20;;
49131;SDS011;35149;51.196;6.204;2023-07-16T13:23:57;3.47;;;1.88;;
49131;SDS011;35149;51.196;6.204;2023-07-16T13:26:26;1.63;;;1.35;;
49131;SDS011;35149;51.196;6.204;2023-07-16T13:28:53;1.58;;;1.48;;
49131;SDS011;35149;51.196;6.204;2023-07-16T13:31:20;2.80;;;1.73;;
49131;SDS011;35149;51.196;6.204;2023-07-16T13:33:47;2.50;;;1.35;;
49131;SDS011;35149;51.196;6.204;2023-07-16T13:36:13;3.13;;;1.75;;
49131;SDS011;35149;51.196;6.204;2023-07-16T13:38:45;3.05;;;1.90;;
49131;SDS011;35149;51.196;6.204;2023-07-16T13:41:12;2.58;;;1.63;;
49131;SDS011;35149;51.196;6.204;2023-07-16T13:43:39;2.22;;;1.73;;
49131;SDS011;35149;51.196;6.204;2023-07-16T13:46:05;3.17;;;1.90;;
49131;SDS011;35149;51.196;6.204;2023-07-16T13:48:32;2.38;;;1.58;;
49131;SDS011;35149;51.196;6.204;2023-07-16T13:51:19;1.73;;;1.42;;
49131;SDS011;35149;51.196;6.204;2023-07-16T13:53:49;3.58;;;1.80;;
49131;SDS011;35149;51.196;6.204;2023-07-16T13:56:15;2.35;;;1.60;;
49131;SDS011;35149;51.196;6.204;2023-07-16T13:58:43;2.60;;;2.30;;
49131;SDS011;35149;51.196;6.204;2023-07-16T14:01:09;2.95;;;1.70;;
49131;SDS011;35149;51.196;6.204;2023-07-16T14:03:36;2.47;;;1.85;;
49131;SDS011;35149;51.196;6.204;2023-07-16T14:06:03;2.20;;;1.95;;
49131;SDS011;35149;51.196;6.204;2023-07-16T14:08:32;3.30;;;2.15;;
49131;SDS011;35149;51.196;6.204;2023-07-16T14:11:00;3.45;;;2.28;;
49131;SDS011;35149;51.196;6.204;2023-07-16T14:13:27;3.08;;;2.08;;
49131;SDS011;35149;51.196;6.204;2023-07-16T14:15:56;3.55;;;2.40;;
49131;SDS011;35149;51.196;6.204;2023-07-16T14:18:24;2.88;;;2.08;;
49131;SDS011;35149;51.196;6.204;2023-07-16T14:20:51;3.92;;;2.13;;
49131;SDS011;35149;51.196;6.204;2023-07-16T14:23:19;3.65;;;2.97;;
49131;SDS011;35149;51.196;6.204;2023-07-16T14:25:46;2.20;;;2.00;;
49131;SDS011;35149;51.196;6.204;2023-07-16T14:28:12;4.05;;;2.40;;
49131;SDS011;35149;51.196;6.204;2023-07-16T14:30:39;3.95;;;2.25;;
49131;SDS011;35149;51.196;6.204;2023-07-16T14:33:06;4.22;;;2.08;;
49131;SDS011;35149;51.196;6.204;2023-07-16T14:35:33;4.03;;;1.88;;
49131;SDS011;35149;51.196;6.204;2023-07-16T14:38:03;4.03;;;1.75;;
49131;SDS011;35149;51.196;6.204;2023-07-16T14:40:30;3.25;;;2.88;;
49131;SDS011;35149;51.196;6.204;2023-07-16T14:42:57;2.65;;;2.10;;
49131;SDS011;35149;51.196;6.204;2023-07-16T14:45:28;3.38;;;2.58;;
49131;SDS011;35149;51.196;6.204;2023-07-16T14:47:55;2.30;;;2.10;;
49131;SDS011;35149;51.196;6.204;2023-07-16T14:50:23;2.75;;;2.50;;
49131;SDS011;35149;51.196;6.204;2023-07-16T14:52:49;3.13;;;2.30;;
49131;SDS011;35149;51.196;6.204;2023-07-16T14:55:16;3.30;;;2.13;;
49131;SDS011;35149;51.196;6.204;2023-07-16T14:57:51;4.05;;;2.30;;
49131;SDS011;35149;51.196;6.204;2023-07-16T15:00:19;4.20;;;2.00;;
49131;SDS011;35149;51.196;6.204;2023-07-16T15:02:48;4.00;;;2.63;;
49131;SDS011;35149;51.196;6.204;2023-07-16T15:05:15;3.80;;;2.65;;
49131;SDS011;35149;51.196;6.204;2023-07-16T15:07:42;2.40;;;2.20;;
49131;SDS011;35149;51.196;6.204;2023-07-16T15:10:09;2.85;;;2.35;;
49131;SDS011;35149;51.196;6.204;2023-07-16T15:12:36;2.90;;;2.30;;
49131;SDS011;35149;51.196;6.204;2023-07-16T15:15:05;4.70;;;2.15;;